17:17
Airports
Links
Donate
Help keep this website running!
PayPal
Bitcoin
METAR
NSFA 211700Z 10005KT 9999 VCSH FEW024 BKN040 25/24 Q1009
Current Weather Conditions at NSFA
VFR 17:00:00 21-11-17
Altimeter:29.79 hg
Temp:25.0°c 77°f
Dew point:24.0°c 75°f
Wind:5 knots, 5.8 mph, 3 m/s, from 100°
Visibility:6.21 statute miles
4000(BKN) Broken
2400(FEW) A few
Past METAR reports
VFR 16:00:00 21-11-17
Altimeter:29.76 hg
Temp:25.0°c 77°f
Dew point:24.0°c 75°f
Wind:0 knots, 0 mph, 0 m/s,
Variable direction
Visibility:6.21 statute miles
3000(FEW) A few
No significant weather changes expected within 2 hours.
NSFA 211600Z 00000KT 9999 FEW030 25/24 Q1008 NOSIG
VFR 15:00:00 21-11-17
Altimeter:29.76 hg
Temp:25.0°c 77°f
Dew point:24.0°c 75°f
Wind:0 knots, 0 mph, 0 m/s,
Variable direction
Visibility:6.21 statute miles
3500(FEW) A few
No significant weather changes expected within 2 hours.
NSFA 211500Z 00000KT 9999 FEW035 25/24 Q1008 NOSIG
VFR 14:00:00 21-11-17
Altimeter:29.76 hg
Temp:25.0°c 77°f
Dew point:23.0°c 73°f
Wind:0 knots, 0 mph, 0 m/s,
Variable direction
Visibility:6.21 statute miles
3000(FEW) A few
No significant weather changes expected within 2 hours.
NSFA 211400Z 00000KT 9999 FEW030 25/23 Q1008 NOSIG
TAF
TAF NSFA 211714Z 2118/2218 10008KT 9999 SCT022 BKN040 PROB30 TEMPO 2121/2206 5000 TSRA FEW018CB
Forecast at NSFA
18:00 21-11-17 to 18:00 22-11-17
Wind:8 Knots from 100°
Visibility:6.21 statute miles
2200SCT Scattered
4000BKN Broken
TEMPO 21:00 21-11-17 to 06:00 22-11-17
30% TSRA
Visibility:3.11 statute miles
1800FEW A few